sensor_id;sensor_type;location;lat;lon;timestamp;pressure;altitude;pressure_sealevel;temperature;humidity
60489;BME280;46331;49.252;8.904;2023-02-10T00:00:13;101700.22;;;-4.74;85.50
60489;BME280;46331;49.252;8.904;2023-02-10T00:00:54;101698.47;;;-4.74;85.28
60489;BME280;46331;49.252;8.904;2023-02-10T00:01:35;101696.88;;;-4.76;84.88
60489;BME280;46331;49.252;8.904;2023-02-10T00:02:16;101694.28;;;-4.76;85.12
60489;BME280;46331;49.252;8.904;2023-02-10T00:02:57;101698.63;;;-4.77;84.80
60489;BME280;46331;49.252;8.904;2023-02-10T00:03:38;101692.63;;;-4.77;85.85
60489;BME280;46331;49.252;8.904;2023-02-10T00:04:18;101691.59;;;-4.75;85.76
60489;BME280;46331;49.252;8.904;2023-02-10T00:04:59;101687.38;;;-4.76;85.45
60489;BME280;46331;49.252;8.904;2023-02-10T00:05:39;101692.47;;;-4.74;85.99
60489;BME280;46331;49.252;8.904;2023-02-10T00:06:21;101694.78;;;-4.70;85.89
60489;BME280;46331;49.252;8.904;2023-02-10T00:07:05;101686.16;;;-4.70;86.47
60489;BME280;46331;49.252;8.904;2023-02-10T00:07:45;101688.56;;;-4.67;86.18
60489;BME280;46331;49.252;8.904;2023-02-10T00:08:26;101691.66;;;-4.60;86.56
60489;BME280;46331;49.252;8.904;2023-02-10T00:09:07;101686.38;;;-4.59;86.49
60489;BME280;46331;49.252;8.904;2023-02-10T00:09:48;101689.63;;;-4.55;87.00
60489;BME280;46331;49.252;8.904;2023-02-10T00:10:29;101695.09;;;-4.45;87.06
60489;BME280;46331;49.252;8.904;2023-02-10T00:11:10;101689.63;;;-4.41;86.73
60489;BME280;46331;49.252;8.904;2023-02-10T00:11:51;101685.13;;;-4.37;86.92
60489;BME280;46331;49.252;8.904;2023-02-10T00:12:39;101684.94;;;-4.34;86.50
60489;BME280;46331;49.252;8.904;2023-02-10T00:13:19;101691.75;;;-4.33;85.86
60489;BME280;46331;49.252;8.904;2023-02-10T00:14:00;101689.34;;;-4.36;85.60
60489;BME280;46331;49.252;8.904;2023-02-10T00:14:40;101688.72;;;-4.40;84.21
60489;BME280;46331;49.252;8.904;2023-02-10T00:15:21;101700.94;;;-4.42;84.27
60489;BME280;46331;49.252;8.904;2023-02-10T00:16:06;101690.16;;;-4.50;84.33
60489;BME280;46331;49.252;8.904;2023-02-10T00:16:49;101692.31;;;-4.57;84.03
60489;BME280;46331;49.252;8.904;2023-02-10T00:17:31;101695.16;;;-4.61;83.53
60489;BME280;46331;49.252;8.904;2023-02-10T00:18:11;101697.19;;;-4.67;83.57
60489;BME280;46331;49.252;8.904;2023-02-10T00:18:52;101699.97;;;-4.70;83.88
60489;BME280;46331;49.252;8.904;2023-02-10T00:19:32;101705.13;;;-4.70;84.07
60489;BME280;46331;49.252;8.904;2023-02-10T00:20:13;101702.72;;;-4.73;84.07
60489;BME280;46331;49.252;8.904;2023-02-10T00:20:54;101706.22;;;-4.74;83.50
60489;BME280;46331;49.252;8.904;2023-02-10T00:21:34;101707.13;;;-4.75;84.00
60489;BME280;46331;49.252;8.904;2023-02-10T00:22:15;101702.13;;;-4.78;83.71
60489;BME280;46331;49.252;8.904;2023-02-10T00:22:56;101703.16;;;-4.80;83.57
60489;BME280;46331;49.252;8.904;2023-02-10T00:23:36;101712.66;;;-4.81;83.97
60489;BME280;46331;49.252;8.904;2023-02-10T00:24:21;101716.19;;;-4.82;84.24
60489;BME280;46331;49.252;8.904;2023-02-10T00:25:01;101702.47;;;-4.84;84.30
60489;BME280;46331;49.252;8.904;2023-02-10T00:25:43;101704.25;;;-4.85;83.94
60489;BME280;46331;49.252;8.904;2023-02-10T00:26:26;101705.25;;;-4.87;84.18
60489;BME280;46331;49.252;8.904;2023-02-10T00:27:07;101704.50;;;-4.89;84.19
60489;BME280;46331;49.252;8.904;2023-02-10T00:27:47;101698.69;;;-4.93;84.36
60489;BME280;46331;49.252;8.904;2023-02-10T00:28:28;101695.41;;;-4.96;83.83
60489;BME280;46331;49.252;8.904;2023-02-10T00:29:09;101693.78;;;-4.97;83.74
60489;BME280;46331;49.252;8.904;2023-02-10T00:29:50;101695.03;;;-5.05;84.23
60489;BME280;46331;49.252;8.904;2023-02-10T00:30:30;101703.78;;;-5.07;84.66
60489;BME280;46331;49.252;8.904;2023-02-10T00:31:13;101689.94;;;-5.06;84.81
60489;BME280;46331;49.252;8.904;2023-02-10T00:31:54;101705.56;;;-5.08;84.69
60489;BME280;46331;49.252;8.904;2023-02-10T00:32:34;101708.06;;;-5.06;84.04
60489;BME280;46331;49.252;8.904;2023-02-10T00:33:17;101703.06;;;-5.09;84.67
60489;BME280;46331;49.252;8.904;2023-02-10T00:33:58;101703.06;;;-5.09;84.54
60489;BME280;46331;49.252;8.904;2023-02-10T00:34:41;101707.41;;;-5.10;84.60
60489;BME280;46331;49.252;8.904;2023-02-10T00:35:22;101699.72;;;-5.11;85.02
60489;BME280;46331;49.252;8.904;2023-02-10T00:36:04;101707.50;;;-5.11;84.86
60489;BME280;46331;49.252;8.904;2023-02-10T00:36:48;101715.25;;;-5.11;83.84
60489;BME280;46331;49.252;8.904;2023-02-10T00:37:29;101707.66;;;-5.14;84.64
60489;BME280;46331;49.252;8.904;2023-02-10T00:38:10;101707.75;;;-5.16;84.97
60489;BME280;46331;49.252;8.904;2023-02-10T00:38:51;101710.34;;;-5.16;85.07
60489;BME280;46331;49.252;8.904;2023-02-10T00:39:32;101710.34;;;-5.16;84.40
60489;BME280;46331;49.252;8.904;2023-02-10T00:40:15;101710.41;;;-5.17;84.78
60489;BME280;46331;49.252;8.904;2023-02-10T00:40:55;101712.91;;;-5.16;85.13
60489;BME280;46331;49.252;8.904;2023-02-10T00:41:41;101714.66;;;-5.16;85.26
60489;BME280;46331;49.252;8.904;2023-02-10T00:42:23;101714.75;;;-5.18;84.65
60489;BME280;46331;49.252;8.904;2023-02-10T00:43:03;101710.41;;;-5.17;84.33
60489;BME280;46331;49.252;8.904;2023-02-10T00:43:44;101712.16;;;-5.18;84.00
60489;BME280;46331;49.252;8.904;2023-02-10T00:44:25;101718.44;;;-5.22;84.04
60489;BME280;46331;49.252;8.904;2023-02-10T00:45:05;101726.19;;;-5.22;83.84
60489;BME280;46331;49.252;8.904;2023-02-10T00:45:46;101721.94;;;-5.23;83.95
60489;BME280;46331;49.252;8.904;2023-02-10T00:46:26;101718.59;;;-5.25;83.79
60489;BME280;46331;49.252;8.904;2023-02-10T00:47:07;101722.09;;;-5.26;83.63
60489;BME280;46331;49.252;8.904;2023-02-10T00:47:47;101725.75;;;-5.30;83.49
60489;BME280;46331;49.252;8.904;2023-02-10T00:48:30;101725.94;;;-5.33;83.17
60489;BME280;46331;49.252;8.904;2023-02-10T00:49:11;101719.84;;;-5.32;83.52
60489;BME280;46331;49.252;8.904;2023-02-10T00:49:52;101726.84;;;-5.34;83.85
60489;BME280;46331;49.252;8.904;2023-02-10T00:50:35;101728.50;;;-5.33;84.06
60489;BME280;46331;49.252;8.904;2023-02-10T00:51:17;101725.09;;;-5.34;84.30
60489;BME280;46331;49.252;8.904;2023-02-10T00:51:58;101722.59;;;-5.35;84.24
60489;BME280;46331;49.252;8.904;2023-02-10T00:52:39;101728.59;;;-5.35;84.01
60489;BME280;46331;49.252;8.904;2023-02-10T00:53:21;101730.34;;;-5.35;84.40
60489;BME280;46331;49.252;8.904;2023-02-10T00:54:01;101728.69;;;-5.36;84.36
60489;BME280;46331;49.252;8.904;2023-02-10T00:54:42;101726.84;;;-5.34;85.70
60489;BME280;46331;49.252;8.904;2023-02-10T00:55:23;101735.38;;;-5.32;86.12
60489;BME280;46331;49.252;8.904;2023-02-10T00:56:03;101730.84;;;-5.29;87.18
60489;BME280;46331;49.252;8.904;2023-02-10T00:56:45;101736.63;;;-5.24;87.65
60489;BME280;46331;49.252;8.904;2023-02-10T00:57:25;101740.59;;;-5.18;87.24
60489;BME280;46331;49.252;8.904;2023-02-10T00:58:06;101734.34;;;-5.14;87.08
60489;BME280;46331;49.252;8.904;2023-02-10T00:58:47;101739.44;;;-5.12;86.61
60489;BME280;46331;49.252;8.904;2023-02-10T00:59:27;101737.69;;;-5.12;86.18
60489;BME280;46331;49.252;8.904;2023-02-10T01:00:09;101740.34;;;-5.13;85.99
60489;BME280;46331;49.252;8.904;2023-02-10T01:00:50;101744.59;;;-5.12;85.56
60489;BME280;46331;49.252;8.904;2023-02-10T01:01:31;101743.88;;;-5.14;85.37
60489;BME280;46331;49.252;8.904;2023-02-10T01:02:11;101746.63;;;-5.17;85.51
60489;BME280;46331;49.252;8.904;2023-02-10T01:02:52;101749.28;;;-5.19;85.55
60489;BME280;46331;49.252;8.904;2023-02-10T01:03:33;101752.06;;;-5.22;85.83
60489;BME280;46331;49.252;8.904;2023-02-10T01:04:14;101750.47;;;-5.25;86.08
60489;BME280;46331;49.252;8.904;2023-02-10T01:04:55;101748.03;;;-5.28;85.50
60489;BME280;46331;49.252;8.904;2023-02-10T01:05:37;101749.72;;;-5.27;85.84
60489;BME280;46331;49.252;8.904;2023-02-10T01:06:18;101745.53;;;-5.29;85.63
60489;BME280;46331;49.252;8.904;2023-02-10T01:06:58;101744.03;;;-5.33;85.97
60489;BME280;46331;49.252;8.904;2023-02-10T01:07:39;101751.03;;;-5.35;85.69
60489;BME280;46331;49.252;8.904;2023-02-10T01:08:19;101751.22;;;-5.39;85.65
60489;BME280;46331;49.252;8.904;2023-02-10T01:09:00;101744.59;;;-5.44;84.64
60489;BME280;46331;49.252;8.904;2023-02-10T01:09:41;101748.97;;;-5.45;85.27
60489;BME280;46331;49.252;8.904;2023-02-10T01:10:23;101741.28;;;-5.46;85.06
60489;BME280;46331;49.252;8.904;2023-02-10T01:11:06;101752.28;;;-5.43;85.75
60489;BME280;46331;49.252;8.904;2023-02-10T01:11:47;101737.59;;;-5.42;85.52
60489;BME280;46331;49.252;8.904;2023-02-10T01:12:27;101740.94;;;-5.40;85.97
60489;BME280;46331;49.252;8.904;2023-02-10T01:13:10;101744.34;;;-5.40;85.38
60489;BME280;46331;49.252;8.904;2023-02-10T01:13:51;101742.50;;;-5.38;85.25
60489;BME280;46331;49.252;8.904;2023-02-10T01:14:34;101742.59;;;-5.39;85.79
60489;BME280;46331;49.252;8.904;2023-02-10T01:15:15;101739.19;;;-5.40;85.13
60489;BME280;46331;49.252;8.904;2023-02-10T01:15:56;101746.22;;;-5.42;85.27
60489;BME280;46331;49.252;8.904;2023-02-10T01:16:37;101756.47;;;-5.40;85.78
60489;BME280;46331;49.252;8.904;2023-02-10T01:17:17;101743.38;;;-5.37;87.00
60489;BME280;46331;49.252;8.904;2023-02-10T01:17:58;101752.53;;;-5.31;87.49
60489;BME280;46331;49.252;8.904;2023-02-10T01:18:40;101755.63;;;-5.25;87.06
60489;BME280;46331;49.252;8.904;2023-02-10T01:19:21;101753.78;;;-5.23;87.09
60489;BME280;46331;49.252;8.904;2023-02-10T01:20:04;101759.72;;;-5.21;86.46
60489;BME280;46331;49.252;8.904;2023-02-10T01:20:44;101753.53;;;-5.18;86.59
60489;BME280;46331;49.252;8.904;2023-02-10T01:21:25;101756.97;;;-5.17;86.28
60489;BME280;46331;49.252;8.904;2023-02-10T01:22:05;101744.94;;;-5.18;85.53
60489;BME280;46331;49.252;8.904;2023-02-10T01:22:46;101756.13;;;-5.18;86.15
60489;BME280;46331;49.252;8.904;2023-02-10T01:23:26;101755.38;;;-5.20;86.28
60489;BME280;46331;49.252;8.904;2023-02-10T01:24:07;101758.97;;;-5.23;85.13
60489;BME280;46331;49.252;8.904;2023-02-10T01:24:48;101759.13;;;-5.26;84.75
60489;BME280;46331;49.252;8.904;2023-02-10T01:25:29;101763.56;;;-5.28;85.01
60489;BME280;46331;49.252;8.904;2023-02-10T01:26:11;101760.13;;;-5.28;84.73
60489;BME280;46331;49.252;8.904;2023-02-10T01:26:52;101760.88;;;-5.26;85.63
60489;BME280;46331;49.252;8.904;2023-02-10T01:27:32;101758.22;;;-5.25;85.88
60489;BME280;46331;49.252;8.904;2023-02-10T01:28:13;101759.72;;;-5.21;85.57
60489;BME280;46331;49.252;8.904;2023-02-10T01:28:53;101763.06;;;-5.18;86.17
60489;BME280;46331;49.252;8.904;2023-02-10T01:29:34;101764.66;;;-5.16;85.56
60489;BME280;46331;49.252;8.904;2023-02-10T01:30:14;101769.47;;;-5.10;85.61
60489;BME280;46331;49.252;8.904;2023-02-10T01:30:55;101765.78;;;-5.06;85.79
60489;BME280;46331;49.252;8.904;2023-02-10T01:31:36;101763.97;;;-5.04;85.45
60489;BME280;46331;49.252;8.904;2023-02-10T01:32:18;101765.63;;;-5.03;84.87
60489;BME280;46331;49.252;8.904;2023-02-10T01:32:59;101769.97;;;-5.03;84.86
60489;BME280;46331;49.252;8.904;2023-02-10T01:33:40;101772.81;;;-5.08;84.05
60489;BME280;46331;49.252;8.904;2023-02-10T01:34:21;101767.72;;;-5.09;83.74
60489;BME280;46331;49.252;8.904;2023-02-10T01:35:03;101770.41;;;-5.11;83.68
60489;BME280;46331;49.252;8.904;2023-02-10T01:35:44;101777.41;;;-5.13;83.84
60489;BME280;46331;49.252;8.904;2023-02-10T01:36:26;101773.16;;;-5.14;83.86
60489;BME280;46331;49.252;8.904;2023-02-10T01:37:06;101773.97;;;-5.13;83.87
60489;BME280;46331;49.252;8.904;2023-02-10T01:37:47;101773.16;;;-5.14;83.84
60489;BME280;46331;49.252;8.904;2023-02-10T01:38:27;101780.91;;;-5.14;83.93
60489;BME280;46331;49.252;8.904;2023-02-10T01:39:08;101764.66;;;-5.16;84.23
60489;BME280;46331;49.252;8.904;2023-02-10T01:39:49;101775.81;;;-5.15;84.43
60489;BME280;46331;49.252;8.904;2023-02-10T01:40:29;101775.00;;;-5.16;84.43
60489;BME280;46331;49.252;8.904;2023-02-10T01:41:10;101774.06;;;-5.15;84.34
60489;BME280;46331;49.252;8.904;2023-02-10T01:41:54;101767.31;;;-5.17;83.88
60489;BME280;46331;49.252;8.904;2023-02-10T01:42:36;101773.31;;;-5.17;84.45
60489;BME280;46331;49.252;8.904;2023-02-10T01:43:20;101777.66;;;-5.17;83.95
60489;BME280;46331;49.252;8.904;2023-02-10T01:44:56;101775.06;;;-5.17;84.26
60489;BME280;46331;49.252;8.904;2023-02-10T01:45:14;101775.16;;;-5.19;83.75
60489;BME280;46331;49.252;8.904;2023-02-10T01:45:54;101772.75;;;-5.22;83.60
60489;BME280;46331;49.252;8.904;2023-02-10T01:46:35;101767.66;;;-5.24;84.05
60489;BME280;46331;49.252;8.904;2023-02-10T01:47:16;101772.13;;;-5.27;83.81
60489;BME280;46331;49.252;8.904;2023-02-10T01:47:57;101771.41;;;-5.29;83.69
60489;BME280;46331;49.252;8.904;2023-02-10T01:48:38;101767.22;;;-5.32;83.93
60489;BME280;46331;49.252;8.904;2023-02-10T01:49:22;101769.16;;;-5.35;83.37
60489;BME280;46331;49.252;8.904;2023-02-10T01:50:04;101760.63;;;-5.38;83.95
60489;BME280;46331;49.252;8.904;2023-02-10T01:50:51;101770.13;;;-5.38;83.95
60489;BME280;46331;49.252;8.904;2023-02-10T01:51:38;101757.28;;;-5.40;84.08
60489;BME280;46331;49.252;8.904;2023-02-10T01:52:23;101766.88;;;-5.42;86.31
60489;BME280;46331;49.252;8.904;2023-02-10T01:53:06;101760.44;;;-5.34;86.51
60489;BME280;46331;49.252;8.904;2023-02-10T01:53:47;101758.56;;;-5.31;86.79
60489;BME280;46331;49.252;8.904;2023-02-10T01:54:53;101757.41;;;-5.25;86.50
60489;BME280;46331;49.252;8.904;2023-02-10T01:55:33;101757.47;;;-5.11;86.79
60489;BME280;46331;49.252;8.904;2023-02-10T01:56:15;101765.78;;;-5.06;86.78
60489;BME280;46331;49.252;8.904;2023-02-10T01:56:56;101764.06;;;-5.05;87.34
60489;BME280;46331;49.252;8.904;2023-02-10T01:57:40;101766.38;;;-5.00;87.12
60489;BME280;46331;49.252;8.904;2023-02-10T01:58:25;101773.38;;;-5.03;87.14
60489;BME280;46331;49.252;8.904;2023-02-10T01:59:07;101768.81;;;-4.97;86.87
60489;BME280;46331;49.252;8.904;2023-02-10T01:59:48;101771.13;;;-4.93;86.91
60489;BME280;46331;49.252;8.904;2023-02-10T02:00:29;101778.13;;;-4.95;87.18
60489;BME280;46331;49.252;8.904;2023-02-10T02:01:11;101775.53;;;-4.95;86.91
60489;BME280;46331;49.252;8.904;2023-02-10T02:01:52;101778.81;;;-4.91;87.19
60489;BME280;46331;49.252;8.904;2023-02-10T02:02:32;101777.13;;;-4.92;86.16
60489;BME280;46331;49.252;8.904;2023-02-10T02:03:15;101782.56;;;-4.97;85.88
60489;BME280;46331;49.252;8.904;2023-02-10T02:03:56;101778.31;;;-4.98;85.68
60489;BME280;46331;49.252;8.904;2023-02-10T02:04:42;101781.91;;;-5.00;85.63
60489;BME280;46331;49.252;8.904;2023-02-10T02:05:38;101778.81;;;-5.07;84.84
60489;BME280;46331;49.252;8.904;2023-02-10T02:06:19;101779.91;;;-5.11;84.86
60489;BME280;46331;49.252;8.904;2023-02-10T02:07:01;101781.72;;;-5.13;85.09
60489;BME280;46331;49.252;8.904;2023-02-10T02:07:41;101775.81;;;-5.15;85.03
60489;BME280;46331;49.252;8.904;2023-02-10T02:08:28;101781.06;;;-5.17;84.78
60489;BME280;46331;49.252;8.904;2023-02-10T02:09:10;101783.81;;;-5.20;84.76
60489;BME280;46331;49.252;8.904;2023-02-10T02:09:52;101777.84;;;-5.21;85.45
60489;BME280;46331;49.252;8.904;2023-02-10T02:11:14;101779.41;;;-5.18;85.13
60489;BME280;46331;49.252;8.904;2023-02-10T02:12:00;101786.25;;;-5.17;86.04
60489;BME280;46331;49.252;8.904;2023-02-10T02:12:59;101781.00;;;-5.15;85.36
60489;BME280;46331;49.252;8.904;2023-02-10T02:14:52;101777.50;;;-5.14;86.15
60489;BME280;46331;49.252;8.904;2023-02-10T02:17:22;101775.66;;;-5.12;87.01
60489;BME280;46331;49.252;8.904;2023-02-10T02:18:14;101774.66;;;-5.10;87.18
60489;BME280;46331;49.252;8.904;2023-02-10T02:19:05;101769.47;;;-5.10;87.95
60489;BME280;46331;49.252;8.904;2023-02-10T02:21:22;101771.66;;;-5.02;87.16
60489;BME280;46331;49.252;8.904;2023-02-10T02:24:05;101768.13;;;-5.01;87.40
60489;BME280;46331;49.252;8.904;2023-02-10T02:27:14;101760.88;;;-5.10;86.06
60489;BME280;46331;49.252;8.904;2023-02-10T02:30:17;101768.47;;;-5.07;86.82
60489;BME280;46331;49.252;8.904;2023-02-10T02:32:25;101763.53;;;-5.12;86.83
60489;BME280;46331;49.252;8.904;2023-02-10T02:33:25;101768.06;;;-5.15;86.19
60489;BME280;46331;49.252;8.904;2023-02-10T02:34:16;101763.31;;;-5.23;86.22
60489;BME280;46331;49.252;8.904;2023-02-10T02:35:04;101768.81;;;-5.29;86.39
60489;BME280;46331;49.252;8.904;2023-02-10T02:36:13;101772.31;;;-5.30;86.34
60489;BME280;46331;49.252;8.904;2023-02-10T02:37:00;101774.31;;;-5.35;86.08
60489;BME280;46331;49.252;8.904;2023-02-10T02:37:44;101776.28;;;-5.41;86.40
60489;BME280;46331;49.252;8.904;2023-02-10T02:38:26;101766.72;;;-5.39;86.16
60489;BME280;46331;49.252;8.904;2023-02-10T02:39:06;101771.13;;;-5.41;86.04
60489;BME280;46331;49.252;8.904;2023-02-10T02:39:52;101764.22;;;-5.40;86.39
60489;BME280;46331;49.252;8.904;2023-02-10T02:40:33;101765.13;;;-5.41;86.64
60489;BME280;46331;49.252;8.904;2023-02-10T02:41:22;101777.41;;;-5.45;85.93
60489;BME280;46331;49.252;8.904;2023-02-10T02:42:57;101770.53;;;-5.46;86.06
60489;BME280;46331;49.252;8.904;2023-02-10T02:43:39;101770.63;;;-5.47;85.77
60489;BME280;46331;49.252;8.904;2023-02-10T02:44:21;101760.63;;;-5.53;85.27
60489;BME280;46331;49.252;8.904;2023-02-10T02:45:05;101770.22;;;-5.55;85.84
60489;BME280;46331;49.252;8.904;2023-02-10T02:45:52;101760.69;;;-5.55;85.55
60489;BME280;46331;49.252;8.904;2023-02-10T02:46:57;101770.28;;;-5.57;86.02
60489;BME280;46331;49.252;8.904;2023-02-10T02:47:55;101772.88;;;-5.57;85.84
60489;BME280;46331;49.252;8.904;2023-02-10T02:49:01;101768.63;;;-5.58;85.64
60489;BME280;46331;49.252;8.904;2023-02-10T02:49:49;101769.53;;;-5.59;85.33
60489;BME280;46331;49.252;8.904;2023-02-10T02:51:39;101774.94;;;-5.64;85.46
60489;BME280;46331;49.252;8.904;2023-02-10T02:52:30;101773.19;;;-5.63;85.53
60489;BME280;46331;49.252;8.904;2023-02-10T02:55:09;101786.22;;;-5.65;85.51
60489;BME280;46331;49.252;8.904;2023-02-10T02:56:00;101774.19;;;-5.66;85.63
60489;BME280;46331;49.252;8.904;2023-02-10T02:56:47;101783.78;;;-5.68;85.54
60489;BME280;46331;49.252;8.904;2023-02-10T02:57:41;101785.50;;;-5.68;85.69
60489;BME280;46331;49.252;8.904;2023-02-10T02:59:43;101783.16;;;-5.73;85.70
60489;BME280;46331;49.252;8.904;2023-02-10T03:00:30;101780.75;;;-5.76;85.92
60489;BME280;46331;49.252;8.904;2023-02-10T03:01:15;101785.09;;;-5.77;86.38
60489;BME280;46331;49.252;8.904;2023-02-10T03:01:59;101786.75;;;-5.76;85.94
60489;BME280;46331;49.252;8.904;2023-02-10T03:02:42;101780.00;;;-5.78;86.19
60489;BME280;46331;49.252;8.904;2023-02-10T03:03:25;101793.75;;;-5.78;85.86
60489;BME280;46331;49.252;8.904;2023-02-10T03:04:06;101786.00;;;-5.78;85.70
60489;BME280;46331;49.252;8.904;2023-02-10T03:04:47;101793.75;;;-5.78;86.10
60489;BME280;46331;49.252;8.904;2023-02-10T03:05:31;101797.19;;;-5.77;86.04
60489;BME280;46331;49.252;8.904;2023-02-10T03:06:13;101798.91;;;-5.78;85.69
60489;BME280;46331;49.252;8.904;2023-02-10T03:06:54;101799.75;;;-5.77;86.15
60489;BME280;46331;49.252;8.904;2023-02-10T03:07:36;101800.75;;;-5.80;86.40
60489;BME280;46331;49.252;8.904;2023-02-10T03:08:16;101793.16;;;-5.83;86.31
60489;BME280;46331;49.252;8.904;2023-02-10T03:08:57;101797.34;;;-5.80;86.42
60489;BME280;46331;49.252;8.904;2023-02-10T03:09:37;101795.59;;;-5.80;86.31
60489;BME280;46331;49.252;8.904;2023-02-10T03:10:18;101795.59;;;-5.80;86.18
60489;BME280;46331;49.252;8.904;2023-02-10T03:10:59;101797.41;;;-5.82;86.54
60489;BME280;46331;49.252;8.904;2023-02-10T03:11:40;101810.50;;;-5.85;86.33
60489;BME280;46331;49.252;8.904;2023-02-10T03:12:20;101806.97;;;-5.84;86.10
60489;BME280;46331;49.252;8.904;2023-02-10T03:13:01;101807.06;;;-5.85;86.44
60489;BME280;46331;49.252;8.904;2023-02-10T03:13:41;101807.06;;;-5.85;86.30
60489;BME280;46331;49.252;8.904;2023-02-10T03:14:22;101810.72;;;-5.89;86.71
60489;BME280;46331;49.252;8.904;2023-02-10T03:15:03;101813.25;;;-5.88;87.20
60489;BME280;46331;49.252;8.904;2023-02-10T03:15:43;101814.88;;;-5.87;86.41
60489;BME280;46331;49.252;8.904;2023-02-10T03:16:24;101807.22;;;-5.88;86.87
60489;BME280;46331;49.252;8.904;2023-02-10T03:17:04;101805.56;;;-5.89;87.09
60489;BME280;46331;49.252;8.904;2023-02-10T03:17:45;101814.88;;;-5.87;87.22
60489;BME280;46331;49.252;8.904;2023-02-10T03:18:26;101812.31;;;-5.87;86.91
60489;BME280;46331;49.252;8.904;2023-02-10T03:19:06;101814.88;;;-5.87;87.32
60489;BME280;46331;49.252;8.904;2023-02-10T03:19:47;101804.63;;;-5.88;86.60
60489;BME280;46331;49.252;8.904;2023-02-10T03:20:27;101818.31;;;-5.86;87.14
60489;BME280;46331;49.252;8.904;2023-02-10T03:21:08;101818.41;;;-5.88;87.16
60489;BME280;46331;49.252;8.904;2023-02-10T03:21:48;101811.56;;;-5.89;87.01
60489;BME280;46331;49.252;8.904;2023-02-10T03:22:29;101808.16;;;-5.89;87.08
60489;BME280;46331;49.252;8.904;2023-02-10T03:23:10;101811.56;;;-5.89;86.90
60489;BME280;46331;49.252;8.904;2023-02-10T03:23:51;101816.81;;;-5.90;86.93
60489;BME280;46331;49.252;8.904;2023-02-10T03:24:31;101808.16;;;-5.89;86.88
60489;BME280;46331;49.252;8.904;2023-02-10T03:25:12;101812.47;;;-5.90;86.88
60489;BME280;46331;49.252;8.904;2023-02-10T03:25:53;101811.63;;;-5.90;87.00
60489;BME280;46331;49.252;8.904;2023-02-10T03:26:54;101807.38;;;-5.92;86.93
60489;BME280;46331;49.252;8.904;2023-02-10T03:27:34;101801.47;;;-5.94;86.76
60489;BME280;46331;49.252;8.904;2023-02-10T03:28:15;101808.47;;;-5.96;86.91
60489;BME280;46331;49.252;8.904;2023-02-10T03:28:56;101807.53;;;-5.95;86.33
60489;BME280;46331;49.252;8.904;2023-02-10T03:29:43;101805.88;;;-5.96;86.28
60489;BME280;46331;49.252;8.904;2023-02-10T03:30:24;101807.59;;;-5.96;87.04
60489;BME280;46331;49.252;8.904;2023-02-10T03:31:06;101813.75;;;-5.97;86.95
60489;BME280;46331;49.252;8.904;2023-02-10T03:31:47;101812.88;;;-5.98;86.80
60489;BME280;46331;49.252;8.904;2023-02-10T03:32:27;101814.72;;;-6.00;86.52
60489;BME280;46331;49.252;8.904;2023-02-10T03:33:08;101815.53;;;-5.99;86.26
60489;BME280;46331;49.252;8.904;2023-02-10T03:33:48;101815.63;;;-6.01;86.37
60489;BME280;46331;49.252;8.904;2023-02-10T03:34:29;101819.97;;;-6.01;86.69
60489;BME280;46331;49.252;8.904;2023-02-10T03:35:10;101811.53;;;-6.05;86.39
60489;BME280;46331;49.252;8.904;2023-02-10T03:35:50;101816.63;;;-6.03;85.60
60489;BME280;46331;49.252;8.904;2023-02-10T03:36:31;101821.03;;;-6.05;85.68
60489;BME280;46331;49.252;8.904;2023-02-10T03:37:13;101821.03;;;-6.05;86.08
60489;BME280;46331;49.252;8.904;2023-02-10T03:37:54;101819.22;;;-6.03;86.71
60489;BME280;46331;49.252;8.904;2023-02-10T03:38:35;101814.03;;;-6.03;86.41
60489;BME280;46331;49.252;8.904;2023-02-10T03:39:16;101818.44;;;-6.05;86.04
60489;BME280;46331;49.252;8.904;2023-02-10T03:39:56;101817.53;;;-6.04;86.34
60489;BME280;46331;49.252;8.904;2023-02-10T03:40:37;101815.78;;;-6.04;86.34
60489;BME280;46331;49.252;8.904;2023-02-10T03:41:17;101818.28;;;-6.02;86.34
60489;BME280;46331;49.252;8.904;2023-02-10T03:41:58;101818.44;;;-6.05;86.58
60489;BME280;46331;49.252;8.904;2023-02-10T03:42:38;101811.53;;;-6.05;88.30
60489;BME280;46331;49.252;8.904;2023-02-10T03:43:20;101819.97;;;-6.01;88.73
60489;BME280;46331;49.252;8.904;2023-02-10T03:44:01;101814.72;;;-6.00;89.06
60489;BME280;46331;49.252;8.904;2023-02-10T03:44:41;101812.63;;;-5.93;89.59
60489;BME280;46331;49.252;8.904;2023-02-10T03:45:22;101825.06;;;-5.84;89.67
60489;BME280;46331;49.252;8.904;2023-02-10T03:46:03;101809.41;;;-5.81;89.61
60489;BME280;46331;49.252;8.904;2023-02-10T03:46:44;101822.09;;;-5.76;89.88
60489;BME280;46331;49.252;8.904;2023-02-10T03:47:27;101813.19;;;-5.70;89.39
60489;BME280;46331;49.252;8.904;2023-02-10T03:48:08;101819.97;;;-5.68;89.09
60489;BME280;46331;49.252;8.904;2023-02-10T03:48:49;101818.94;;;-5.65;89.33
60489;BME280;46331;49.252;8.904;2023-02-10T03:49:29;101816.38;;;-5.65;89.09
60489;BME280;46331;49.252;8.904;2023-02-10T03:50:10;101822.22;;;-5.62;89.14
60489;BME280;46331;49.252;8.904;2023-02-10T03:50:50;101821.38;;;-5.62;89.00
60489;BME280;46331;49.252;8.904;2023-02-10T03:51:31;101820.47;;;-5.61;88.66
60489;BME280;46331;49.252;8.904;2023-02-10T03:52:11;101824.03;;;-5.64;88.54
60489;BME280;46331;49.252;8.904;2023-02-10T03:52:52;101810.38;;;-5.66;88.21
60489;BME280;46331;49.252;8.904;2023-02-10T03:53:33;101818.13;;;-5.66;88.31
60489;BME280;46331;49.252;8.904;2023-02-10T03:54:14;101820.78;;;-5.67;88.22
60489;BME280;46331;49.252;8.904;2023-02-10T03:54:54;101814.88;;;-5.69;88.36
60489;BME280;46331;49.252;8.904;2023-02-10T03:55:35;101823.44;;;-5.69;87.59
60489;BME280;46331;49.252;8.904;2023-02-10T03:56:15;101820.03;;;-5.69;87.89
60489;BME280;46331;49.252;8.904;2023-02-10T03:56:56;101817.53;;;-5.71;87.97
60489;BME280;46331;49.252;8.904;2023-02-10T03:57:36;101812.44;;;-5.72;87.46
60489;BME280;46331;49.252;8.904;2023-02-10T03:58:17;101811.59;;;-5.73;87.35
60489;BME280;46331;49.252;8.904;2023-02-10T03:59:00;101812.53;;;-5.74;87.36
60489;BME280;46331;49.252;8.904;2023-02-10T03:59:41;101824.59;;;-5.75;87.91
60489;BME280;46331;49.252;8.904;2023-02-10T04:00:22;101816.75;;;-5.73;88.26